sensor_id;sensor_type;location;lat;lon;timestamp;P1;durP1;ratioP1;P2;durP2;ratioP2
68225;SDS011;55045;49.410;11.030;2023-08-07T00:01:45;0.82;;;0.82;;
68225;SDS011;55045;49.410;11.030;2023-08-07T00:04:48;2.05;;;0.90;;
68225;SDS011;55045;49.410;11.030;2023-08-07T00:07:52;1.08;;;0.90;;
68225;SDS011;55045;49.410;11.030;2023-08-07T00:11:03;0.82;;;0.82;;
68225;SDS011;55045;49.410;11.030;2023-08-07T00:14:07;0.85;;;0.85;;
68225;SDS011;55045;49.410;11.030;2023-08-07T00:17:10;0.80;;;0.80;;
68225;SDS011;55045;49.410;11.030;2023-08-07T00:20:13;0.80;;;0.80;;
68225;SDS011;55045;49.410;11.030;2023-08-07T00:23:20;0.70;;;0.70;;
68225;SDS011;55045;49.410;11.030;2023-08-07T00:26:23;0.70;;;0.70;;
68225;SDS011;55045;49.410;11.030;2023-08-07T00:29:27;1.58;;;0.63;;
68225;SDS011;55045;49.410;11.030;2023-08-07T00:32:30;0.60;;;0.60;;
68225;SDS011;55045;49.410;11.030;2023-08-07T00:35:34;0.85;;;0.60;;
68225;SDS011;55045;49.410;11.030;2023-08-07T00:38:38;2.05;;;0.77;;
68225;SDS011;55045;49.410;11.030;2023-08-07T00:41:47;1.63;;;0.73;;
68225;SDS011;55045;49.410;11.030;2023-08-07T00:44:51;1.20;;;1.10;;
68225;SDS011;55045;49.410;11.030;2023-08-07T00:47:54;1.10;;;1.05;;
68225;SDS011;55045;49.410;11.030;2023-08-07T00:50:57;2.20;;;1.00;;
68225;SDS011;55045;49.410;11.030;2023-08-07T00:54:03;2.25;;;0.80;;
68225;SDS011;55045;49.410;11.030;2023-08-07T00:57:10;0.82;;;0.80;;
68225;SDS011;55045;49.410;11.030;2023-08-07T01:00:16;0.70;;;0.70;;
68225;SDS011;55045;49.410;11.030;2023-08-07T01:03:22;0.80;;;0.80;;
68225;SDS011;55045;49.410;11.030;2023-08-07T01:06:26;0.77;;;0.70;;
68225;SDS011;55045;49.410;11.030;2023-08-07T01:09:31;1.30;;;0.80;;
68225;SDS011;55045;49.410;11.030;2023-08-07T01:12:36;0.77;;;0.75;;
68225;SDS011;55045;49.410;11.030;2023-08-07T01:15:47;2.25;;;0.70;;
68225;SDS011;55045;49.410;11.030;2023-08-07T01:18:55;1.73;;;0.80;;
68225;SDS011;55045;49.410;11.030;2023-08-07T01:22:11;0.85;;;0.80;;
68225;SDS011;55045;49.410;11.030;2023-08-07T01:25:16;0.80;;;0.80;;
68225;SDS011;55045;49.410;11.030;2023-08-07T01:28:21;1.67;;;0.80;;
68225;SDS011;55045;49.410;11.030;2023-08-07T01:31:32;1.42;;;0.90;;
68225;SDS011;55045;49.410;11.030;2023-08-07T01:34:40;1.00;;;1.00;;
68225;SDS011;55045;49.410;11.030;2023-08-07T01:37:46;1.85;;;1.10;;
68225;SDS011;55045;49.410;11.030;2023-08-07T01:40:51;1.08;;;0.98;;
68225;SDS011;55045;49.410;11.030;2023-08-07T01:44:00;1.48;;;1.10;;
68225;SDS011;55045;49.410;11.030;2023-08-07T01:47:06;0.90;;;0.90;;
68225;SDS011;55045;49.410;11.030;2023-08-07T01:50:10;3.00;;;1.10;;
68225;SDS011;55045;49.410;11.030;2023-08-07T01:53:18;0.77;;;0.77;;
68225;SDS011;55045;49.410;11.030;2023-08-07T01:56:22;1.38;;;0.90;;
68225;SDS011;55045;49.410;11.030;2023-08-07T01:59:28;1.48;;;0.93;;
68225;SDS011;55045;49.410;11.030;2023-08-07T02:02:35;1.00;;;1.00;;
68225;SDS011;55045;49.410;11.030;2023-08-07T02:05:38;1.17;;;1.08;;
68225;SDS011;55045;49.410;11.030;2023-08-07T02:08:43;1.83;;;0.90;;
68225;SDS011;55045;49.410;11.030;2023-08-07T02:11:48;1.58;;;1.15;;
68225;SDS011;55045;49.410;11.030;2023-08-07T02:14:55;1.65;;;1.10;;
68225;SDS011;55045;49.410;11.030;2023-08-07T02:17:58;1.33;;;1.15;;
68225;SDS011;55045;49.410;11.030;2023-08-07T02:21:02;2.38;;;1.30;;
68225;SDS011;55045;49.410;11.030;2023-08-07T02:24:08;1.17;;;1.08;;
68225;SDS011;55045;49.410;11.030;2023-08-07T02:27:14;1.25;;;1.10;;
68225;SDS011;55045;49.410;11.030;2023-08-07T02:30:17;1.23;;;1.13;;
68225;SDS011;55045;49.410;11.030;2023-08-07T02:33:24;1.20;;;1.10;;
68225;SDS011;55045;49.410;11.030;2023-08-07T02:36:29;1.67;;;1.15;;
68225;SDS011;55045;49.410;11.030;2023-08-07T02:39:34;1.63;;;1.25;;
68225;SDS011;55045;49.410;11.030;2023-08-07T02:42:37;3.25;;;1.95;;
68225;SDS011;55045;49.410;11.030;2023-08-07T02:45:43;2.38;;;1.30;;
68225;SDS011;55045;49.410;11.030;2023-08-07T02:48:46;1.73;;;1.20;;
68225;SDS011;55045;49.410;11.030;2023-08-07T02:51:50;4.28;;;2.03;;
68225;SDS011;55045;49.410;11.030;2023-08-07T02:54:55;4.43;;;1.40;;
68225;SDS011;55045;49.410;11.030;2023-08-07T02:58:00;1.58;;;1.30;;
68225;SDS011;55045;49.410;11.030;2023-08-07T03:01:06;2.72;;;1.50;;
68225;SDS011;55045;49.410;11.030;2023-08-07T03:04:10;3.97;;;1.40;;
68225;SDS011;55045;49.410;11.030;2023-08-07T03:07:15;3.15;;;1.70;;
68225;SDS011;55045;49.410;11.030;2023-08-07T03:10:20;1.40;;;1.25;;
68225;SDS011;55045;49.410;11.030;2023-08-07T03:13:30;4.60;;;2.13;;
68225;SDS011;55045;49.410;11.030;2023-08-07T03:16:36;3.42;;;1.80;;
68225;SDS011;55045;49.410;11.030;2023-08-07T03:19:41;3.33;;;1.88;;
68225;SDS011;55045;49.410;11.030;2023-08-07T03:22:46;4.17;;;1.93;;
68225;SDS011;55045;49.410;11.030;2023-08-07T03:26:00;2.83;;;1.52;;
68225;SDS011;55045;49.410;11.030;2023-08-07T03:29:20;4.05;;;1.60;;
68225;SDS011;55045;49.410;11.030;2023-08-07T03:34:55;3.90;;;1.77;;
68225;SDS011;55045;49.410;11.030;2023-08-07T03:37:58;4.05;;;2.00;;
68225;SDS011;55045;49.410;11.030;2023-08-07T03:41:03;3.25;;;1.90;;
68225;SDS011;55045;49.410;11.030;2023-08-07T03:44:07;2.88;;;2.20;;
68225;SDS011;55045;49.410;11.030;2023-08-07T03:47:11;4.90;;;2.20;;
68225;SDS011;55045;49.410;11.030;2023-08-07T03:50:17;2.97;;;1.98;;
68225;SDS011;55045;49.410;11.030;2023-08-07T03:53:20;4.75;;;2.38;;
68225;SDS011;55045;49.410;11.030;2023-08-07T03:56:24;4.55;;;2.30;;
68225;SDS011;55045;49.410;11.030;2023-08-07T03:59:27;3.42;;;2.10;;
68225;SDS011;55045;49.410;11.030;2023-08-07T04:02:34;4.95;;;2.60;;
68225;SDS011;55045;49.410;11.030;2023-08-07T04:05:39;4.10;;;1.90;;
68225;SDS011;55045;49.410;11.030;2023-08-07T04:08:44;5.95;;;2.28;;
68225;SDS011;55045;49.410;11.030;2023-08-07T04:11:51;3.42;;;2.50;;
68225;SDS011;55045;49.410;11.030;2023-08-07T04:14:55;4.63;;;2.83;;
68225;SDS011;55045;49.410;11.030;2023-08-07T04:17:59;3.85;;;2.35;;
68225;SDS011;55045;49.410;11.030;2023-08-07T04:21:04;6.68;;;2.50;;
68225;SDS011;55045;49.410;11.030;2023-08-07T04:24:08;3.17;;;2.38;;
68225;SDS011;55045;49.410;11.030;2023-08-07T04:27:13;3.60;;;2.35;;
68225;SDS011;55045;49.410;11.030;2023-08-07T04:30:17;3.35;;;2.40;;
68225;SDS011;55045;49.410;11.030;2023-08-07T04:33:21;3.85;;;2.58;;
68225;SDS011;55045;49.410;11.030;2023-08-07T04:36:26;4.10;;;2.53;;
68225;SDS011;55045;49.410;11.030;2023-08-07T04:39:30;4.38;;;2.63;;
68225;SDS011;55045;49.410;11.030;2023-08-07T04:42:36;6.25;;;2.88;;
68225;SDS011;55045;49.410;11.030;2023-08-07T04:45:40;3.38;;;2.80;;
68225;SDS011;55045;49.410;11.030;2023-08-07T04:48:45;5.93;;;2.75;;
68225;SDS011;55045;49.410;11.030;2023-08-07T04:51:50;4.30;;;2.50;;
68225;SDS011;55045;49.410;11.030;2023-08-07T04:54:55;5.43;;;2.65;;
68225;SDS011;55045;49.410;11.030;2023-08-07T04:57:59;4.95;;;3.10;;
68225;SDS011;55045;49.410;11.030;2023-08-07T05:01:04;11.32;;;3.08;;
68225;SDS011;55045;49.410;11.030;2023-08-07T05:04:09;6.50;;;2.88;;
68225;SDS011;55045;49.410;11.030;2023-08-07T05:07:17;6.88;;;2.65;;
68225;SDS011;55045;49.410;11.030;2023-08-07T05:10:21;8.20;;;3.53;;
68225;SDS011;55045;49.410;11.030;2023-08-07T05:13:25;6.35;;;2.95;;
68225;SDS011;55045;49.410;11.030;2023-08-07T05:16:36;5.65;;;3.15;;
68225;SDS011;55045;49.410;11.030;2023-08-07T05:19:39;5.63;;;3.05;;
68225;SDS011;55045;49.410;11.030;2023-08-07T05:22:44;5.47;;;3.17;;
68225;SDS011;55045;49.410;11.030;2023-08-07T05:25:48;5.25;;;3.50;;
68225;SDS011;55045;49.410;11.030;2023-08-07T05:28:52;9.57;;;3.95;;
68225;SDS011;55045;49.410;11.030;2023-08-07T05:31:58;8.32;;;4.53;;
68225;SDS011;55045;49.410;11.030;2023-08-07T05:35:01;7.75;;;3.42;;
68225;SDS011;55045;49.410;11.030;2023-08-07T05:38:08;8.43;;;3.70;;
68225;SDS011;55045;49.410;11.030;2023-08-07T05:41:12;7.47;;;3.85;;
68225;SDS011;55045;49.410;11.030;2023-08-07T05:44:16;6.47;;;3.58;;
68225;SDS011;55045;49.410;11.030;2023-08-07T05:47:19;6.68;;;3.13;;
68225;SDS011;55045;49.410;11.030;2023-08-07T05:50:23;5.63;;;2.83;;
68225;SDS011;55045;49.410;11.030;2023-08-07T05:53:28;5.07;;;3.30;;
68225;SDS011;55045;49.410;11.030;2023-08-07T05:56:32;4.05;;;3.20;;
68225;SDS011;55045;49.410;11.030;2023-08-07T05:59:36;9.20;;;3.22;;
68225;SDS011;55045;49.410;11.030;2023-08-07T06:02:39;6.60;;;3.00;;
68225;SDS011;55045;49.410;11.030;2023-08-07T06:05:46;6.57;;;2.90;;
68225;SDS011;55045;49.410;11.030;2023-08-07T06:08:51;4.90;;;3.13;;
68225;SDS011;55045;49.410;11.030;2023-08-07T06:12:00;3.80;;;2.85;;
68225;SDS011;55045;49.410;11.030;2023-08-07T06:15:05;5.90;;;2.88;;
68225;SDS011;55045;49.410;11.030;2023-08-07T06:18:09;4.95;;;3.05;;
68225;SDS011;55045;49.410;11.030;2023-08-07T06:21:15;3.65;;;2.42;;
68225;SDS011;55045;49.410;11.030;2023-08-07T06:24:20;4.82;;;2.83;;
68225;SDS011;55045;49.410;11.030;2023-08-07T06:27:24;9.68;;;2.92;;
68225;SDS011;55045;49.410;11.030;2023-08-07T06:30:28;4.57;;;2.60;;
68225;SDS011;55045;49.410;11.030;2023-08-07T06:33:34;3.45;;;2.42;;
68225;SDS011;55045;49.410;11.030;2023-08-07T06:36:38;5.70;;;3.10;;
68225;SDS011;55045;49.410;11.030;2023-08-07T06:39:43;3.90;;;2.50;;
68225;SDS011;55045;49.410;11.030;2023-08-07T06:42:50;5.28;;;2.90;;
68225;SDS011;55045;49.410;11.030;2023-08-07T06:49:01;7.30;;;3.08;;
68225;SDS011;55045;49.410;11.030;2023-08-07T06:52:06;5.28;;;3.08;;
68225;SDS011;55045;49.410;11.030;2023-08-07T06:55:11;4.65;;;2.85;;
68225;SDS011;55045;49.410;11.030;2023-08-07T06:58:14;5.75;;;3.05;;
68225;SDS011;55045;49.410;11.030;2023-08-07T07:01:18;5.85;;;3.05;;
68225;SDS011;55045;49.410;11.030;2023-08-07T07:04:22;3.92;;;2.95;;
68225;SDS011;55045;49.410;11.030;2023-08-07T07:07:26;6.80;;;3.17;;
68225;SDS011;55045;49.410;11.030;2023-08-07T07:10:31;4.10;;;3.17;;
68225;SDS011;55045;49.410;11.030;2023-08-07T07:13:35;9.18;;;3.20;;
68225;SDS011;55045;49.410;11.030;2023-08-07T07:16:39;8.30;;;3.15;;
68225;SDS011;55045;49.410;11.030;2023-08-07T07:19:43;8.57;;;3.97;;
68225;SDS011;55045;49.410;11.030;2023-08-07T07:22:48;7.25;;;3.90;;
68225;SDS011;55045;49.410;11.030;2023-08-07T07:25:53;8.15;;;3.80;;
68225;SDS011;55045;49.410;11.030;2023-08-07T07:28:57;5.82;;;3.50;;
68225;SDS011;55045;49.410;11.030;2023-08-07T07:32:00;6.57;;;3.33;;
68225;SDS011;55045;49.410;11.030;2023-08-07T07:35:04;4.88;;;3.10;;
68225;SDS011;55045;49.410;11.030;2023-08-07T07:38:08;5.60;;;2.97;;
68225;SDS011;55045;49.410;11.030;2023-08-07T07:41:14;6.32;;;3.65;;
68225;SDS011;55045;49.410;11.030;2023-08-07T07:44:20;7.07;;;2.88;;
68225;SDS011;55045;49.410;11.030;2023-08-07T07:47:23;4.05;;;2.72;;
68225;SDS011;55045;49.410;11.030;2023-08-07T07:50:27;4.25;;;3.70;;
68225;SDS011;55045;49.410;11.030;2023-08-07T07:53:31;12.52;;;2.70;;
68225;SDS011;55045;49.410;11.030;2023-08-07T07:56:38;4.28;;;2.80;;
68225;SDS011;55045;49.410;11.030;2023-08-07T07:59:43;6.53;;;3.20;;
68225;SDS011;55045;49.410;11.030;2023-08-07T08:02:46;4.20;;;2.92;;
68225;SDS011;55045;49.410;11.030;2023-08-07T08:05:53;6.93;;;3.53;;
68225;SDS011;55045;49.410;11.030;2023-08-07T08:08:58;4.78;;;2.97;;
68225;SDS011;55045;49.410;11.030;2023-08-07T08:12:03;5.47;;;3.05;;
68225;SDS011;55045;49.410;11.030;2023-08-07T08:15:08;8.23;;;2.80;;
68225;SDS011;55045;49.410;11.030;2023-08-07T08:18:12;7.07;;;3.17;;
68225;SDS011;55045;49.410;11.030;2023-08-07T08:21:16;7.25;;;3.17;;
68225;SDS011;55045;49.410;11.030;2023-08-07T08:24:19;4.32;;;2.78;;
68225;SDS011;55045;49.410;11.030;2023-08-07T08:27:24;5.13;;;3.15;;
68225;SDS011;55045;49.410;11.030;2023-08-07T08:30:28;5.35;;;2.80;;
68225;SDS011;55045;49.410;11.030;2023-08-07T08:33:32;3.55;;;2.92;;
68225;SDS011;55045;49.410;11.030;2023-08-07T08:36:36;4.82;;;3.10;;
68225;SDS011;55045;49.410;11.030;2023-08-07T08:39:40;4.50;;;2.90;;
68225;SDS011;55045;49.410;11.030;2023-08-07T08:42:45;5.53;;;2.97;;
68225;SDS011;55045;49.410;11.030;2023-08-07T08:45:49;5.40;;;3.50;;
68225;SDS011;55045;49.410;11.030;2023-08-07T08:48:54;6.53;;;2.80;;
68225;SDS011;55045;49.410;11.030;2023-08-07T08:52:03;7.68;;;3.22;;
68225;SDS011;55045;49.410;11.030;2023-08-07T08:55:08;6.22;;;3.13;;
68225;SDS011;55045;49.410;11.030;2023-08-07T08:58:14;5.43;;;2.78;;
68225;SDS011;55045;49.410;11.030;2023-08-07T09:01:22;4.75;;;2.92;;
68225;SDS011;55045;49.410;11.030;2023-08-07T09:04:27;6.65;;;3.17;;
68225;SDS011;55045;49.410;11.030;2023-08-07T09:07:31;5.22;;;3.15;;
68225;SDS011;55045;49.410;11.030;2023-08-07T09:10:36;5.90;;;3.45;;
68225;SDS011;55045;49.410;11.030;2023-08-07T09:13:42;3.33;;;2.50;;
68225;SDS011;55045;49.410;11.030;2023-08-07T09:16:48;3.90;;;2.77;;
68225;SDS011;55045;49.410;11.030;2023-08-07T09:19:53;3.50;;;2.60;;
68225;SDS011;55045;49.410;11.030;2023-08-07T09:22:58;3.55;;;2.30;;
68225;SDS011;55045;49.410;11.030;2023-08-07T09:26:02;4.15;;;2.70;;
68225;SDS011;55045;49.410;11.030;2023-08-07T09:29:08;3.42;;;2.28;;
68225;SDS011;55045;49.410;11.030;2023-08-07T09:34:43;4.75;;;2.42;;
68225;SDS011;55045;49.410;11.030;2023-08-07T09:37:47;3.25;;;2.72;;
68225;SDS011;55045;49.410;11.030;2023-08-07T09:40:50;4.72;;;2.60;;
68225;SDS011;55045;49.410;11.030;2023-08-07T09:43:55;4.10;;;2.38;;
68225;SDS011;55045;49.410;11.030;2023-08-07T09:46:58;3.25;;;2.38;;
68225;SDS011;55045;49.410;11.030;2023-08-07T09:50:14;7.53;;;2.70;;
68225;SDS011;55045;49.410;11.030;2023-08-07T09:53:21;9.70;;;2.75;;
68225;SDS011;55045;49.410;11.030;2023-08-07T09:56:28;3.78;;;2.60;;
68225;SDS011;55045;49.410;11.030;2023-08-07T09:59:32;4.93;;;2.35;;
68225;SDS011;55045;49.410;11.030;2023-08-07T10:02:36;4.97;;;2.50;;
68225;SDS011;55045;49.410;11.030;2023-08-07T10:05:41;3.42;;;2.30;;
68225;SDS011;55045;49.410;11.030;2023-08-07T10:08:49;4.00;;;2.25;;
68225;SDS011;55045;49.410;11.030;2023-08-07T10:11:53;4.53;;;2.90;;
68225;SDS011;55045;49.410;11.030;2023-08-07T10:14:58;5.80;;;2.65;;
68225;SDS011;55045;49.410;11.030;2023-08-07T10:18:02;4.03;;;2.10;;
68225;SDS011;55045;49.410;11.030;2023-08-07T10:21:11;3.97;;;2.05;;
68225;SDS011;55045;49.410;11.030;2023-08-07T10:24:16;3.65;;;2.10;;
68225;SDS011;55045;49.410;11.030;2023-08-07T10:27:21;2.80;;;2.33;;
68225;SDS011;55045;49.410;11.030;2023-08-07T10:30:28;4.47;;;2.20;;
68225;SDS011;55045;49.410;11.030;2023-08-07T10:33:33;2.60;;;2.22;;
68225;SDS011;55045;49.410;11.030;2023-08-07T10:36:40;2.85;;;2.10;;
68225;SDS011;55045;49.410;11.030;2023-08-07T10:43:12;3.25;;;2.13;;
68225;SDS011;55045;49.410;11.030;2023-08-07T10:46:20;3.92;;;1.83;;
68225;SDS011;55045;49.410;11.030;2023-08-07T10:49:33;2.80;;;1.95;;
68225;SDS011;55045;49.410;11.030;2023-08-07T10:52:45;2.75;;;2.28;;
68225;SDS011;55045;49.410;11.030;2023-08-07T10:55:57;2.58;;;1.90;;
68225;SDS011;55045;49.410;11.030;2023-08-07T10:59:07;3.22;;;2.10;;
68225;SDS011;55045;49.410;11.030;2023-08-07T11:02:12;5.00;;;2.33;;
68225;SDS011;55045;49.410;11.030;2023-08-07T11:05:17;5.05;;;2.03;;
68225;SDS011;55045;49.410;11.030;2023-08-07T11:08:23;3.45;;;2.40;;
68225;SDS011;55045;49.410;11.030;2023-08-07T11:11:29;3.80;;;2.30;;
68225;SDS011;55045;49.410;11.030;2023-08-07T11:14:33;4.25;;;2.33;;
68225;SDS011;55045;49.410;11.030;2023-08-07T11:17:39;2.75;;;2.17;;
68225;SDS011;55045;49.410;11.030;2023-08-07T11:20:44;6.80;;;2.60;;
68225;SDS011;55045;49.410;11.030;2023-08-07T11:23:48;2.58;;;1.98;;
68225;SDS011;55045;49.410;11.030;2023-08-07T11:26:52;3.42;;;2.30;;
68225;SDS011;55045;49.410;11.030;2023-08-07T11:30:01;4.95;;;2.60;;
68225;SDS011;55045;49.410;11.030;2023-08-07T11:33:06;3.63;;;2.20;;
68225;SDS011;55045;49.410;11.030;2023-08-07T11:36:10;4.60;;;2.10;;
68225;SDS011;55045;49.410;11.030;2023-08-07T11:39:16;2.97;;;2.10;;
68225;SDS011;55045;49.410;11.030;2023-08-07T11:42:21;5.45;;;2.30;;
68225;SDS011;55045;49.410;11.030;2023-08-07T11:45:25;5.18;;;2.25;;
68225;SDS011;55045;49.410;11.030;2023-08-07T11:48:33;2.40;;;2.13;;
68225;SDS011;55045;49.410;11.030;2023-08-07T11:51:39;4.78;;;2.53;;
68225;SDS011;55045;49.410;11.030;2023-08-07T11:54:47;4.47;;;2.50;;
68225;SDS011;55045;49.410;11.030;2023-08-07T11:57:53;3.40;;;2.40;;
68225;SDS011;55045;49.410;11.030;2023-08-07T12:00:58;5.63;;;2.17;;
68225;SDS011;55045;49.410;11.030;2023-08-07T12:04:08;4.22;;;2.05;;
68225;SDS011;55045;49.410;11.030;2023-08-07T12:07:15;3.15;;;2.08;;
68225;SDS011;55045;49.410;11.030;2023-08-07T12:10:22;6.28;;;2.70;;
68225;SDS011;55045;49.410;11.030;2023-08-07T12:13:27;4.20;;;2.35;;
68225;SDS011;55045;49.410;11.030;2023-08-07T12:16:31;2.42;;;2.17;;
68225;SDS011;55045;49.410;11.030;2023-08-07T12:19:37;4.40;;;2.40;;
68225;SDS011;55045;49.410;11.030;2023-08-07T12:22:45;4.25;;;2.47;;
68225;SDS011;55045;49.410;11.030;2023-08-07T12:25:51;4.97;;;2.22;;
68225;SDS011;55045;49.410;11.030;2023-08-07T12:32:01;4.88;;;2.10;;
68225;SDS011;55045;49.410;11.030;2023-08-07T12:35:12;4.18;;;1.70;;
68225;SDS011;55045;49.410;11.030;2023-08-07T12:38:16;5.70;;;2.33;;
68225;SDS011;55045;49.410;11.030;2023-08-07T12:41:22;2.28;;;1.80;;
68225;SDS011;55045;49.410;11.030;2023-08-07T12:44:29;4.53;;;2.20;;
68225;SDS011;55045;49.410;11.030;2023-08-07T12:47:33;4.57;;;2.08;;
68225;SDS011;55045;49.410;11.030;2023-08-07T12:50:38;6.78;;;4.63;;
68225;SDS011;55045;49.410;11.030;2023-08-07T12:53:42;7.32;;;3.28;;
68225;SDS011;55045;49.410;11.030;2023-08-07T12:56:48;6.07;;;2.60;;
68225;SDS011;55045;49.410;11.030;2023-08-07T12:59:52;3.38;;;2.50;;
68225;SDS011;55045;49.410;11.030;2023-08-07T13:02:56;4.85;;;3.40;;
68225;SDS011;55045;49.410;11.030;2023-08-07T13:06:01;3.58;;;2.20;;
68225;SDS011;55045;49.410;11.030;2023-08-07T13:09:07;3.92;;;3.28;;
68225;SDS011;55045;49.410;11.030;2023-08-07T13:12:12;2.78;;;2.33;;
68225;SDS011;55045;49.410;11.030;2023-08-07T13:15:16;4.82;;;2.40;;
68225;SDS011;55045;49.410;11.030;2023-08-07T13:18:20;2.50;;;2.22;;
68225;SDS011;55045;49.410;11.030;2023-08-07T13:21:25;4.35;;;2.20;;
68225;SDS011;55045;49.410;11.030;2023-08-07T13:24:28;2.10;;;1.90;;
68225;SDS011;55045;49.410;11.030;2023-08-07T13:27:36;6.53;;;2.70;;
68225;SDS011;55045;49.410;11.030;2023-08-07T13:30:40;2.95;;;2.33;;
68225;SDS011;55045;49.410;11.030;2023-08-07T13:33:45;8.38;;;4.07;;
68225;SDS011;55045;49.410;11.030;2023-08-07T13:36:50;4.65;;;2.65;;
68225;SDS011;55045;49.410;11.030;2023-08-07T13:39:55;4.00;;;2.35;;
68225;SDS011;55045;49.410;11.030;2023-08-07T13:43:00;3.15;;;1.90;;
68225;SDS011;55045;49.410;11.030;2023-08-07T13:46:12;2.05;;;1.90;;
68225;SDS011;55045;49.410;11.030;2023-08-07T13:49:15;5.05;;;2.28;;
68225;SDS011;55045;49.410;11.030;2023-08-07T13:52:22;2.10;;;1.50;;
68225;SDS011;55045;49.410;11.030;2023-08-07T13:58:37;2.28;;;2.00;;
68225;SDS011;55045;49.410;11.030;2023-08-07T14:01:40;3.47;;;2.17;;
68225;SDS011;55045;49.410;11.030;2023-08-07T14:04:44;3.50;;;2.00;;
68225;SDS011;55045;49.410;11.030;2023-08-07T14:07:48;2.22;;;1.90;;
68225;SDS011;55045;49.410;11.030;2023-08-07T14:10:51;3.05;;;2.10;;
68225;SDS011;55045;49.410;11.030;2023-08-07T14:13:57;2.20;;;1.92;;
68225;SDS011;55045;49.410;11.030;2023-08-07T14:17:00;2.33;;;2.03;;
68225;SDS011;55045;49.410;11.030;2023-08-07T14:20:05;4.68;;;2.60;;
68225;SDS011;55045;49.410;11.030;2023-08-07T14:23:10;3.90;;;2.25;;
68225;SDS011;55045;49.410;11.030;2023-08-07T14:26:22;3.38;;;2.33;;
68225;SDS011;55045;49.410;11.030;2023-08-07T14:29:27;4.40;;;2.00;;
68225;SDS011;55045;49.410;11.030;2023-08-07T14:32:31;3.15;;;2.22;;
68225;SDS011;55045;49.410;11.030;2023-08-07T14:35:34;3.83;;;2.20;;
68225;SDS011;55045;49.410;11.030;2023-08-07T14:38:40;4.18;;;2.30;;
68225;SDS011;55045;49.410;11.030;2023-08-07T14:41:46;3.00;;;2.00;;
68225;SDS011;55045;49.410;11.030;2023-08-07T14:44:55;5.45;;;2.75;;
68225;SDS011;55045;49.410;11.030;2023-08-07T14:47:58;4.60;;;2.30;;
68225;SDS011;55045;49.410;11.030;2023-08-07T14:51:02;2.85;;;2.28;;
68225;SDS011;55045;49.410;11.030;2023-08-07T14:54:06;3.92;;;2.30;;
68225;SDS011;55045;49.410;11.030;2023-08-07T14:57:09;6.07;;;2.50;;
68225;SDS011;55045;49.410;11.030;2023-08-07T15:00:15;2.90;;;2.50;;
68225;SDS011;55045;49.410;11.030;2023-08-07T15:03:21;4.45;;;2.42;;
68225;SDS011;55045;49.410;11.030;2023-08-07T15:06:32;3.55;;;2.20;;
68225;SDS011;55045;49.410;11.030;2023-08-07T15:09:35;5.18;;;2.50;;
68225;SDS011;55045;49.410;11.030;2023-08-07T15:12:41;3.17;;;2.33;;
68225;SDS011;55045;49.410;11.030;2023-08-07T15:15:46;3.45;;;2.08;;
68225;SDS011;55045;49.410;11.030;2023-08-07T15:18:49;4.68;;;2.00;;
68225;SDS011;55045;49.410;11.030;2023-08-07T15:21:55;2.40;;;2.05;;
68225;SDS011;55045;49.410;11.030;2023-08-07T15:24:58;3.70;;;2.38;;
68225;SDS011;55045;49.410;11.030;2023-08-07T15:28:02;4.30;;;2.50;;
68225;SDS011;55045;49.410;11.030;2023-08-07T15:34:43;3.63;;;2.20;;
68225;SDS011;55045;49.410;11.030;2023-08-07T15:37:46;5.03;;;2.50;;
68225;SDS011;55045;49.410;11.030;2023-08-07T15:40:50;3.47;;;2.40;;
68225;SDS011;55045;49.410;11.030;2023-08-07T15:43:54;3.45;;;2.10;;
68225;SDS011;55045;49.410;11.030;2023-08-07T15:46:57;2.88;;;2.40;;
68225;SDS011;55045;49.410;11.030;2023-08-07T15:50:07;4.45;;;2.30;;
68225;SDS011;55045;49.410;11.030;2023-08-07T15:53:13;5.20;;;2.33;;
68225;SDS011;55045;49.410;11.030;2023-08-07T15:56:17;3.33;;;2.20;;
68225;SDS011;55045;49.410;11.030;2023-08-07T15:59:22;3.53;;;2.38;;
68225;SDS011;55045;49.410;11.030;2023-08-07T16:02:28;3.75;;;2.17;;
68225;SDS011;55045;49.410;11.030;2023-08-07T16:05:33;5.15;;;2.30;;
68225;SDS011;55045;49.410;11.030;2023-08-07T16:08:38;4.45;;;2.08;;
68225;SDS011;55045;49.410;11.030;2023-08-07T16:11:46;4.75;;;2.08;;
68225;SDS011;55045;49.410;11.030;2023-08-07T16:14:50;5.15;;;2.33;;
68225;SDS011;55045;49.410;11.030;2023-08-07T16:17:53;3.00;;;2.22;;
68225;SDS011;55045;49.410;11.030;2023-08-07T16:21:01;4.63;;;2.20;;
68225;SDS011;55045;49.410;11.030;2023-08-07T16:24:07;3.50;;;2.47;;
68225;SDS011;55045;49.410;11.030;2023-08-07T16:27:10;4.22;;;2.95;;
68225;SDS011;55045;49.410;11.030;2023-08-07T16:30:14;3.10;;;2.30;;
68225;SDS011;55045;49.410;11.030;2023-08-07T16:33:20;4.70;;;2.15;;
68225;SDS011;55045;49.410;11.030;2023-08-07T16:36:25;8.80;;;2.45;;
68225;SDS011;55045;49.410;11.030;2023-08-07T16:39:28;2.85;;;1.90;;
68225;SDS011;55045;49.410;11.030;2023-08-07T16:42:32;4.38;;;2.90;;
68225;SDS011;55045;49.410;11.030;2023-08-07T16:45:35;3.17;;;2.00;;
68225;SDS011;55045;49.410;11.030;2023-08-07T16:48:40;3.40;;;2.00;;
68225;SDS011;55045;49.410;11.030;2023-08-07T16:51:45;2.17;;;1.85;;
68225;SDS011;55045;49.410;11.030;2023-08-07T16:54:48;3.28;;;2.00;;
68225;SDS011;55045;49.410;11.030;2023-08-07T16:57:55;3.38;;;2.40;;
68225;SDS011;55045;49.410;11.030;2023-08-07T17:00:58;3.33;;;2.33;;
68225;SDS011;55045;49.410;11.030;2023-08-07T17:04:02;4.80;;;2.10;;
68225;SDS011;55045;49.410;11.030;2023-08-07T17:07:07;4.53;;;2.20;;
68225;SDS011;55045;49.410;11.030;2023-08-07T17:10:11;3.40;;;2.20;;
68225;SDS011;55045;49.410;11.030;2023-08-07T17:13:15;5.32;;;2.38;;
68225;SDS011;55045;49.410;11.030;2023-08-07T17:16:19;3.40;;;1.80;;
68225;SDS011;55045;49.410;11.030;2023-08-07T17:19:24;2.20;;;2.00;;
68225;SDS011;55045;49.410;11.030;2023-08-07T17:22:29;2.92;;;1.98;;
68225;SDS011;55045;49.410;11.030;2023-08-07T17:25:33;6.00;;;2.00;;
68225;SDS011;55045;49.410;11.030;2023-08-07T17:28:37;4.10;;;2.45;;
68225;SDS011;55045;49.410;11.030;2023-08-07T17:31:43;4.80;;;2.75;;
68225;SDS011;55045;49.410;11.030;2023-08-07T17:34:46;4.53;;;2.53;;
68225;SDS011;55045;49.410;11.030;2023-08-07T17:37:52;4.55;;;2.33;;
68225;SDS011;55045;49.410;11.030;2023-08-07T17:40:56;3.65;;;2.53;;
68225;SDS011;55045;49.410;11.030;2023-08-07T17:44:00;5.45;;;2.30;;
68225;SDS011;55045;49.410;11.030;2023-08-07T17:47:04;5.80;;;2.50;;
68225;SDS011;55045;49.410;11.030;2023-08-07T17:50:10;3.00;;;2.30;;
68225;SDS011;55045;49.410;11.030;2023-08-07T17:53:17;5.55;;;3.15;;
68225;SDS011;55045;49.410;11.030;2023-08-07T17:56:22;3.13;;;2.50;;
68225;SDS011;55045;49.410;11.030;2023-08-07T17:59:26;3.42;;;2.47;;
68225;SDS011;55045;49.410;11.030;2023-08-07T18:02:30;4.63;;;2.33;;
68225;SDS011;55045;49.410;11.030;2023-08-07T18:05:40;3.53;;;2.10;;
68225;SDS011;55045;49.410;11.030;2023-08-07T18:08:48;2.92;;;2.33;;
68225;SDS011;55045;49.410;11.030;2023-08-07T18:12:05;5.00;;;2.70;;
68225;SDS011;55045;49.410;11.030;2023-08-07T18:15:10;5.53;;;2.75;;
68225;SDS011;55045;49.410;11.030;2023-08-07T18:18:14;5.60;;;2.30;;
68225;SDS011;55045;49.410;11.030;2023-08-07T18:21:18;6.00;;;2.60;;
68225;SDS011;55045;49.410;11.030;2023-08-07T18:24:23;5.68;;;2.40;;
68225;SDS011;55045;49.410;11.030;2023-08-07T18:27:27;3.13;;;2.70;;
68225;SDS011;55045;49.410;11.030;2023-08-07T18:30:31;3.67;;;2.17;;
68225;SDS011;55045;49.410;11.030;2023-08-07T18:33:34;4.90;;;2.60;;
68225;SDS011;55045;49.410;11.030;2023-08-07T18:36:41;3.53;;;2.55;;
68225;SDS011;55045;49.410;11.030;2023-08-07T18:39:47;4.70;;;2.65;;